June Lake, California
Current Conditions -  °F | °C
As of 4:15 AM on Tuesday 27 Jan 2015 (Local Time) from KMMH Reporting Station
Light Snow Light Snow  
Wind Chill: 34°   Ceiling: 3100
Heat Index: 34°   Visibility: 10mi
Dew Point: 34°   Wind: 0mph
Humidity: 100%   Direction: NA
Pressure: 30.16"   Gusts: NA
Location:  37.78°N, 119.07°W
Report Text: KMMH 271215Z AUTO 00000KT 10SM -SN SCT006 SCT009 OVC031 01/01 A3016 RMK AO1
Loading
Personal Weather Stations






























Interactive Weather Map New forecast layout! Learn more

10-Day Weather Forecast

Advertisements
Track Severe Weather on mobile